sensor_id;sensor_type;location;lat;lon;timestamp;temperature;humidity
41471;DHT22;27211;51.220;5.308;2023-03-31T00:02:36;11.80;99.90
41471;DHT22;27211;51.220;5.308;2023-03-31T00:05:23;11.80;99.90
41471;DHT22;27211;51.220;5.308;2023-03-31T00:08:12;11.70;99.90
41471;DHT22;27211;51.220;5.308;2023-03-31T00:11:00;11.70;99.90
41471;DHT22;27211;51.220;5.308;2023-03-31T00:13:45;11.90;99.90
41471;DHT22;27211;51.220;5.308;2023-03-31T00:16:34;11.90;99.90
41471;DHT22;27211;51.220;5.308;2023-03-31T00:19:20;11.90;99.90
41471;DHT22;27211;51.220;5.308;2023-03-31T00:22:07;11.80;99.90
41471;DHT22;27211;51.220;5.308;2023-03-31T00:24:52;11.80;99.90
41471;DHT22;27211;51.220;5.308;2023-03-31T00:27:37;11.50;99.90
41471;DHT22;27211;51.220;5.308;2023-03-31T00:30:22;11.70;99.90
41471;DHT22;27211;51.220;5.308;2023-03-31T00:33:08;11.60;99.90
41471;DHT22;27211;51.220;5.308;2023-03-31T00:35:54;11.70;99.90
41471;DHT22;27211;51.220;5.308;2023-03-31T00:38:48;11.80;99.90
41471;DHT22;27211;51.220;5.308;2023-03-31T00:41:34;11.80;99.90
41471;DHT22;27211;51.220;5.308;2023-03-31T00:44:20;11.40;99.90
41471;DHT22;27211;51.220;5.308;2023-03-31T00:47:12;11.50;99.90
41471;DHT22;27211;51.220;5.308;2023-03-31T00:49:57;11.70;99.90
41471;DHT22;27211;51.220;5.308;2023-03-31T00:52:43;11.70;99.90
41471;DHT22;27211;51.220;5.308;2023-03-31T00:55:30;11.60;99.90
41471;DHT22;27211;51.220;5.308;2023-03-31T00:58:14;11.50;99.90
41471;DHT22;27211;51.220;5.308;2023-03-31T01:01:00;11.50;99.90
41471;DHT22;27211;51.220;5.308;2023-03-31T01:03:45;11.60;99.90
41471;DHT22;27211;51.220;5.308;2023-03-31T01:06:31;11.80;99.90
41471;DHT22;27211;51.220;5.308;2023-03-31T01:09:17;11.70;99.90
41471;DHT22;27211;51.220;5.308;2023-03-31T01:12:03;11.70;99.90
41471;DHT22;27211;51.220;5.308;2023-03-31T01:14:48;11.80;99.90
41471;DHT22;27211;51.220;5.308;2023-03-31T01:17:34;11.80;99.90
41471;DHT22;27211;51.220;5.308;2023-03-31T01:25:31;11.80;99.90
41471;DHT22;27211;51.220;5.308;2023-03-31T01:43:33;11.80;99.90
41471;DHT22;27211;51.220;5.308;2023-03-31T01:46:26;11.70;99.90
41471;DHT22;27211;51.220;5.308;2023-03-31T01:49:18;11.70;99.90
41471;DHT22;27211;51.220;5.308;2023-03-31T01:54:43;11.80;99.90
41471;DHT22;27211;51.220;5.308;2023-03-31T01:57:30;11.80;99.90
41471;DHT22;27211;51.220;5.308;2023-03-31T02:00:17;11.90;99.90
41471;DHT22;27211;51.220;5.308;2023-03-31T02:03:04;11.80;99.90
41471;DHT22;27211;51.220;5.308;2023-03-31T02:05:53;11.70;99.90
41471;DHT22;27211;51.220;5.308;2023-03-31T02:08:39;11.70;99.90
41471;DHT22;27211;51.220;5.308;2023-03-31T02:11:23;11.60;99.90
41471;DHT22;27211;51.220;5.308;2023-03-31T02:14:09;11.60;99.90
41471;DHT22;27211;51.220;5.308;2023-03-31T02:16:54;11.80;99.90
41471;DHT22;27211;51.220;5.308;2023-03-31T02:19:42;11.70;99.90
41471;DHT22;27211;51.220;5.308;2023-03-31T02:22:30;11.70;99.90
41471;DHT22;27211;51.220;5.308;2023-03-31T02:25:16;11.70;99.90
41471;DHT22;27211;51.220;5.308;2023-03-31T02:28:03;11.80;99.90
41471;DHT22;27211;51.220;5.308;2023-03-31T02:33:21;11.70;99.90
41471;DHT22;27211;51.220;5.308;2023-03-31T02:36:06;11.60;99.90
41471;DHT22;27211;51.220;5.308;2023-03-31T02:39:01;11.60;99.90
41471;DHT22;27211;51.220;5.308;2023-03-31T02:41:44;11.60;99.90
41471;DHT22;27211;51.220;5.308;2023-03-31T02:44:35;11.60;99.90
41471;DHT22;27211;51.220;5.308;2023-03-31T02:47:20;11.60;99.90
41471;DHT22;27211;51.220;5.308;2023-03-31T02:50:06;11.80;99.90
41471;DHT22;27211;51.220;5.308;2023-03-31T02:55:27;12.00;99.90
41471;DHT22;27211;51.220;5.308;2023-03-31T02:58:25;12.00;99.90
41471;DHT22;27211;51.220;5.308;2023-03-31T03:01:26;12.00;99.90
41471;DHT22;27211;51.220;5.308;2023-03-31T03:09:17;11.40;99.90
41471;DHT22;27211;51.220;5.308;2023-03-31T03:17:01;11.50;99.90
41471;DHT22;27211;51.220;5.308;2023-03-31T03:19:49;11.40;99.90
41471;DHT22;27211;51.220;5.308;2023-03-31T03:22:33;11.40;99.90
41471;DHT22;27211;51.220;5.308;2023-03-31T03:25:19;11.30;99.90
41471;DHT22;27211;51.220;5.308;2023-03-31T03:28:05;11.30;99.90
41471;DHT22;27211;51.220;5.308;2023-03-31T03:30:51;11.40;99.90
41471;DHT22;27211;51.220;5.308;2023-03-31T03:33:37;11.40;99.90
41471;DHT22;27211;51.220;5.308;2023-03-31T03:36:23;11.40;99.90
41471;DHT22;27211;51.220;5.308;2023-03-31T03:39:08;11.30;99.90
41471;DHT22;27211;51.220;5.308;2023-03-31T03:41:54;11.40;99.90
41471;DHT22;27211;51.220;5.308;2023-03-31T03:44:39;11.30;99.90
41471;DHT22;27211;51.220;5.308;2023-03-31T03:47:28;11.40;99.90
41471;DHT22;27211;51.220;5.308;2023-03-31T03:50:14;11.30;99.90
41471;DHT22;27211;51.220;5.308;2023-03-31T03:52:59;11.30;99.90
41471;DHT22;27211;51.220;5.308;2023-03-31T03:55:45;11.20;99.90
41471;DHT22;27211;51.220;5.308;2023-03-31T03:58:30;11.20;99.90
41471;DHT22;27211;51.220;5.308;2023-03-31T04:01:16;11.30;99.90
41471;DHT22;27211;51.220;5.308;2023-03-31T04:04:02;11.30;99.90
41471;DHT22;27211;51.220;5.308;2023-03-31T04:06:47;11.40;99.90
41471;DHT22;27211;51.220;5.308;2023-03-31T04:09:33;11.40;99.90
41471;DHT22;27211;51.220;5.308;2023-03-31T04:12:18;11.40;99.90
41471;DHT22;27211;51.220;5.308;2023-03-31T04:15:04;11.20;99.90
41471;DHT22;27211;51.220;5.308;2023-03-31T04:17:50;11.40;99.90
41471;DHT22;27211;51.220;5.308;2023-03-31T04:20:43;11.40;99.90
41471;DHT22;27211;51.220;5.308;2023-03-31T04:23:28;11.60;99.90
41471;DHT22;27211;51.220;5.308;2023-03-31T04:26:14;11.60;99.90
41471;DHT22;27211;51.220;5.308;2023-03-31T04:29:08;11.40;99.90
41471;DHT22;27211;51.220;5.308;2023-03-31T04:31:53;11.30;99.90
41471;DHT22;27211;51.220;5.308;2023-03-31T04:34:39;11.30;99.90
41471;DHT22;27211;51.220;5.308;2023-03-31T04:37:28;11.30;99.90
41471;DHT22;27211;51.220;5.308;2023-03-31T04:40:12;11.50;99.90
41471;DHT22;27211;51.220;5.308;2023-03-31T04:42:59;11.40;99.90
41471;DHT22;27211;51.220;5.308;2023-03-31T04:45:45;11.30;99.90
41471;DHT22;27211;51.220;5.308;2023-03-31T04:48:31;11.40;99.90
41471;DHT22;27211;51.220;5.308;2023-03-31T04:51:16;11.40;99.90
41471;DHT22;27211;51.220;5.308;2023-03-31T04:54:01;11.20;99.90
41471;DHT22;27211;51.220;5.308;2023-03-31T04:56:47;11.30;99.90
41471;DHT22;27211;51.220;5.308;2023-03-31T04:59:32;11.40;99.90
41471;DHT22;27211;51.220;5.308;2023-03-31T05:02:18;11.40;99.90
41471;DHT22;27211;51.220;5.308;2023-03-31T05:05:04;11.30;99.90
41471;DHT22;27211;51.220;5.308;2023-03-31T05:07:50;11.30;99.90
41471;DHT22;27211;51.220;5.308;2023-03-31T05:10:35;11.30;99.90
41471;DHT22;27211;51.220;5.308;2023-03-31T05:13:21;11.40;99.90
41471;DHT22;27211;51.220;5.308;2023-03-31T05:16:07;11.30;99.90
41471;DHT22;27211;51.220;5.308;2023-03-31T05:18:52;11.10;99.90
41471;DHT22;27211;51.220;5.308;2023-03-31T05:21:38;11.20;99.90
41471;DHT22;27211;51.220;5.308;2023-03-31T05:24:23;11.20;99.90
41471;DHT22;27211;51.220;5.308;2023-03-31T05:27:09;11.10;99.90
41471;DHT22;27211;51.220;5.308;2023-03-31T05:29:54;11.10;99.90
41471;DHT22;27211;51.220;5.308;2023-03-31T05:32:40;11.30;99.90
41471;DHT22;27211;51.220;5.308;2023-03-31T05:35:26;11.20;99.90
41471;DHT22;27211;51.220;5.308;2023-03-31T05:38:11;11.20;99.90
41471;DHT22;27211;51.220;5.308;2023-03-31T05:40:58;11.10;99.90
41471;DHT22;27211;51.220;5.308;2023-03-31T05:43:44;11.00;99.90
41471;DHT22;27211;51.220;5.308;2023-03-31T05:46:31;11.00;99.90
41471;DHT22;27211;51.220;5.308;2023-03-31T05:49:16;10.90;99.90
41471;DHT22;27211;51.220;5.308;2023-03-31T05:52:03;11.00;99.90
41471;DHT22;27211;51.220;5.308;2023-03-31T05:54:48;11.10;99.90
41471;DHT22;27211;51.220;5.308;2023-03-31T05:57:33;11.00;99.90
41471;DHT22;27211;51.220;5.308;2023-03-31T06:00:19;11.10;99.90
41471;DHT22;27211;51.220;5.308;2023-03-31T06:03:04;11.10;99.90
41471;DHT22;27211;51.220;5.308;2023-03-31T06:05:51;11.20;99.90
41471;DHT22;27211;51.220;5.308;2023-03-31T06:08:39;11.20;99.90
41471;DHT22;27211;51.220;5.308;2023-03-31T06:11:24;11.00;99.90
41471;DHT22;27211;51.220;5.308;2023-03-31T06:14:11;11.00;99.90
41471;DHT22;27211;51.220;5.308;2023-03-31T06:16:56;11.20;99.90
41471;DHT22;27211;51.220;5.308;2023-03-31T06:19:41;11.20;99.90
41471;DHT22;27211;51.220;5.308;2023-03-31T06:22:28;11.10;99.90
41471;DHT22;27211;51.220;5.308;2023-03-31T06:25:14;11.20;99.90
41471;DHT22;27211;51.220;5.308;2023-03-31T06:28:00;11.20;99.90
41471;DHT22;27211;51.220;5.308;2023-03-31T06:30:45;11.30;99.90
41471;DHT22;27211;51.220;5.308;2023-03-31T06:33:31;11.40;99.90
41471;DHT22;27211;51.220;5.308;2023-03-31T06:36:17;11.40;99.90
41471;DHT22;27211;51.220;5.308;2023-03-31T06:39:02;11.40;99.90
41471;DHT22;27211;51.220;5.308;2023-03-31T06:41:48;11.30;99.90
41471;DHT22;27211;51.220;5.308;2023-03-31T06:44:33;11.30;99.90
41471;DHT22;27211;51.220;5.308;2023-03-31T06:47:19;11.40;99.90
41471;DHT22;27211;51.220;5.308;2023-03-31T06:50:08;11.30;99.90
41471;DHT22;27211;51.220;5.308;2023-03-31T06:52:53;11.30;99.90
41471;DHT22;27211;51.220;5.308;2023-03-31T06:55:39;11.40;99.90
41471;DHT22;27211;51.220;5.308;2023-03-31T06:58:24;11.30;99.90
41471;DHT22;27211;51.220;5.308;2023-03-31T07:01:10;11.40;99.90
41471;DHT22;27211;51.220;5.308;2023-03-31T07:03:55;11.40;99.90
41471;DHT22;27211;51.220;5.308;2023-03-31T07:06:41;11.40;99.90
41471;DHT22;27211;51.220;5.308;2023-03-31T07:09:26;11.50;99.90
41471;DHT22;27211;51.220;5.308;2023-03-31T07:12:12;11.50;99.90
41471;DHT22;27211;51.220;5.308;2023-03-31T07:14:58;11.60;99.90
41471;DHT22;27211;51.220;5.308;2023-03-31T07:17:43;11.60;99.90
41471;DHT22;27211;51.220;5.308;2023-03-31T07:20:29;11.50;99.90
41471;DHT22;27211;51.220;5.308;2023-03-31T07:23:14;11.60;99.90
41471;DHT22;27211;51.220;5.308;2023-03-31T07:26:00;11.70;99.90
41471;DHT22;27211;51.220;5.308;2023-03-31T07:28:45;11.70;99.90
41471;DHT22;27211;51.220;5.308;2023-03-31T07:31:31;11.80;99.90
41471;DHT22;27211;51.220;5.308;2023-03-31T07:34:17;11.80;99.90
41471;DHT22;27211;51.220;5.308;2023-03-31T07:37:04;11.80;99.90
41471;DHT22;27211;51.220;5.308;2023-03-31T07:39:50;11.90;99.90
41471;DHT22;27211;51.220;5.308;2023-03-31T07:42:36;11.90;99.90
41471;DHT22;27211;51.220;5.308;2023-03-31T07:45:23;12.10;99.90
41471;DHT22;27211;51.220;5.308;2023-03-31T07:48:08;12.30;99.90
41471;DHT22;27211;51.220;5.308;2023-03-31T07:50:53;12.50;99.90
41471;DHT22;27211;51.220;5.308;2023-03-31T07:53:42;12.70;99.90
41471;DHT22;27211;51.220;5.308;2023-03-31T07:56:27;13.10;99.90
41471;DHT22;27211;51.220;5.308;2023-03-31T07:59:13;13.30;99.90
41471;DHT22;27211;51.220;5.308;2023-03-31T08:01:58;13.40;99.90
41471;DHT22;27211;51.220;5.308;2023-03-31T08:04:44;13.40;99.90
41471;DHT22;27211;51.220;5.308;2023-03-31T08:07:31;13.90;99.90
41471;DHT22;27211;51.220;5.308;2023-03-31T08:10:17;14.20;99.90
41471;DHT22;27211;51.220;5.308;2023-03-31T08:13:00;14.50;99.90
41471;DHT22;27211;51.220;5.308;2023-03-31T08:15:46;14.30;99.90
41471;DHT22;27211;51.220;5.308;2023-03-31T08:18:31;14.00;99.90
41471;DHT22;27211;51.220;5.308;2023-03-31T08:21:17;13.80;99.90
41471;DHT22;27211;51.220;5.308;2023-03-31T08:24:02;13.60;99.90
41471;DHT22;27211;51.220;5.308;2023-03-31T08:26:48;13.50;99.90
41471;DHT22;27211;51.220;5.308;2023-03-31T08:29:33;13.60;99.90
41471;DHT22;27211;51.220;5.308;2023-03-31T08:32:22;13.50;99.90
41471;DHT22;27211;51.220;5.308;2023-03-31T08:35:07;13.60;99.90
41471;DHT22;27211;51.220;5.308;2023-03-31T08:37:53;13.60;99.90
41471;DHT22;27211;51.220;5.308;2023-03-31T08:40:39;13.70;99.90
41471;DHT22;27211;51.220;5.308;2023-03-31T08:43:43;13.50;99.90
41471;DHT22;27211;51.220;5.308;2023-03-31T08:46:14;13.30;99.90
41471;DHT22;27211;51.220;5.308;2023-03-31T08:48:59;13.00;99.90
41471;DHT22;27211;51.220;5.308;2023-03-31T08:51:47;12.90;99.90
41471;DHT22;27211;51.220;5.308;2023-03-31T08:54:33;12.80;99.90
41471;DHT22;27211;51.220;5.308;2023-03-31T08:57:20;12.70;99.90
41471;DHT22;27211;51.220;5.308;2023-03-31T09:00:09;12.70;99.90
41471;DHT22;27211;51.220;5.308;2023-03-31T09:02:54;12.80;99.90
41471;DHT22;27211;51.220;5.308;2023-03-31T09:11:02;12.80;99.90
41471;DHT22;27211;51.220;5.308;2023-03-31T09:14:00;12.80;99.90
41471;DHT22;27211;51.220;5.308;2023-03-31T09:16:47;12.90;99.90
41471;DHT22;27211;51.220;5.308;2023-03-31T09:19:37;13.10;99.90
41471;DHT22;27211;51.220;5.308;2023-03-31T09:22:24;13.20;99.90
41471;DHT22;27211;51.220;5.308;2023-03-31T09:27:38;13.30;99.90
41471;DHT22;27211;51.220;5.308;2023-03-31T09:30:29;13.30;99.90
41471;DHT22;27211;51.220;5.308;2023-03-31T09:33:15;13.20;99.90
41471;DHT22;27211;51.220;5.308;2023-03-31T09:36:00;13.40;99.90
41471;DHT22;27211;51.220;5.308;2023-03-31T09:38:46;13.50;99.90
41471;DHT22;27211;51.220;5.308;2023-03-31T09:41:32;13.40;99.90
41471;DHT22;27211;51.220;5.308;2023-03-31T09:44:30;13.50;99.90
41471;DHT22;27211;51.220;5.308;2023-03-31T09:49:46;14.10;99.90
41471;DHT22;27211;51.220;5.308;2023-03-31T09:52:33;14.20;99.90
41471;DHT22;27211;51.220;5.308;2023-03-31T09:55:19;14.10;99.90
41471;DHT22;27211;51.220;5.308;2023-03-31T09:58:05;14.00;99.90
41471;DHT22;27211;51.220;5.308;2023-03-31T10:03:21;13.70;99.90
41471;DHT22;27211;51.220;5.308;2023-03-31T10:06:07;13.80;99.90
41471;DHT22;27211;51.220;5.308;2023-03-31T10:09:00;13.90;99.90
41471;DHT22;27211;51.220;5.308;2023-03-31T10:11:53;13.80;99.90
41471;DHT22;27211;51.220;5.308;2023-03-31T10:14:39;13.90;99.90
41471;DHT22;27211;51.220;5.308;2023-03-31T10:17:23;13.80;99.90
41471;DHT22;27211;51.220;5.308;2023-03-31T10:20:19;13.80;99.90
41471;DHT22;27211;51.220;5.308;2023-03-31T10:23:16;13.70;99.90
41471;DHT22;27211;51.220;5.308;2023-03-31T10:26:01;14.00;99.90
41471;DHT22;27211;51.220;5.308;2023-03-31T10:28:46;14.10;99.90
41471;DHT22;27211;51.220;5.308;2023-03-31T10:31:35;14.20;99.90
41471;DHT22;27211;51.220;5.308;2023-03-31T10:34:20;14.20;99.90
41471;DHT22;27211;51.220;5.308;2023-03-31T10:37:06;14.50;99.90
41471;DHT22;27211;51.220;5.308;2023-03-31T10:39:58;14.40;99.90
41471;DHT22;27211;51.220;5.308;2023-03-31T10:42:43;14.30;99.90
41471;DHT22;27211;51.220;5.308;2023-03-31T10:45:29;14.30;99.90
41471;DHT22;27211;51.220;5.308;2023-03-31T10:48:19;14.00;99.90
41471;DHT22;27211;51.220;5.308;2023-03-31T10:51:11;13.90;99.90
41471;DHT22;27211;51.220;5.308;2023-03-31T10:53:59;13.80;99.90
41471;DHT22;27211;51.220;5.308;2023-03-31T10:56:48;13.90;99.90
41471;DHT22;27211;51.220;5.308;2023-03-31T11:22:33;14.40;99.90
41471;DHT22;27211;51.220;5.308;2023-03-31T11:25:21;14.60;99.90
41471;DHT22;27211;51.220;5.308;2023-03-31T11:30:40;14.40;99.90
41471;DHT22;27211;51.220;5.308;2023-03-31T11:38:46;14.30;99.90
41471;DHT22;27211;51.220;5.308;2023-03-31T11:41:38;14.30;99.90
41471;DHT22;27211;51.220;5.308;2023-03-31T11:44:23;14.40;99.90
41471;DHT22;27211;51.220;5.308;2023-03-31T11:47:16;14.50;99.90
41471;DHT22;27211;51.220;5.308;2023-03-31T11:50:03;14.60;99.90
41471;DHT22;27211;51.220;5.308;2023-03-31T11:52:51;14.70;99.90
41471;DHT22;27211;51.220;5.308;2023-03-31T11:55:32;14.50;99.90
41471;DHT22;27211;51.220;5.308;2023-03-31T11:58:22;14.50;99.90
41471;DHT22;27211;51.220;5.308;2023-03-31T12:01:14;14.30;99.90
41471;DHT22;27211;51.220;5.308;2023-03-31T12:06:28;13.80;99.90
41471;DHT22;27211;51.220;5.308;2023-03-31T12:11:54;13.80;99.90
41471;DHT22;27211;51.220;5.308;2023-03-31T12:14:38;13.90;99.90
41471;DHT22;27211;51.220;5.308;2023-03-31T12:17:24;14.10;99.90
41471;DHT22;27211;51.220;5.308;2023-03-31T12:20:13;14.30;99.90
41471;DHT22;27211;51.220;5.308;2023-03-31T12:22:57;14.60;99.90
41471;DHT22;27211;51.220;5.308;2023-03-31T12:28:32;15.40;99.90
41471;DHT22;27211;51.220;5.308;2023-03-31T12:31:19;15.50;99.90
41471;DHT22;27211;51.220;5.308;2023-03-31T12:34:04;15.90;99.90
41471;DHT22;27211;51.220;5.308;2023-03-31T12:41:56;15.30;99.90
41471;DHT22;27211;51.220;5.308;2023-03-31T12:49:34;14.60;99.90
41471;DHT22;27211;51.220;5.308;2023-03-31T12:52:20;14.30;99.90
41471;DHT22;27211;51.220;5.308;2023-03-31T12:55:07;13.80;99.90
41471;DHT22;27211;51.220;5.308;2023-03-31T12:57:48;13.40;99.90
41471;DHT22;27211;51.220;5.308;2023-03-31T13:00:34;13.10;99.90
41471;DHT22;27211;51.220;5.308;2023-03-31T13:06:04;13.00;99.90
41471;DHT22;27211;51.220;5.308;2023-03-31T13:14:21;12.10;99.90
41471;DHT22;27211;51.220;5.308;2023-03-31T13:19:38;12.30;99.90
41471;DHT22;27211;51.220;5.308;2023-03-31T13:24:52;12.70;99.90
41471;DHT22;27211;51.220;5.308;2023-03-31T13:27:38;12.70;99.90
41471;DHT22;27211;51.220;5.308;2023-03-31T13:33:08;12.70;99.90
41471;DHT22;27211;51.220;5.308;2023-03-31T13:36:09;12.50;99.90
41471;DHT22;27211;51.220;5.308;2023-03-31T13:41:22;12.30;99.90
41471;DHT22;27211;51.220;5.308;2023-03-31T13:44:20;12.40;99.90
41471;DHT22;27211;51.220;5.308;2023-03-31T13:52:29;12.60;99.90
41471;DHT22;27211;51.220;5.308;2023-03-31T14:08:19;13.10;99.90
41471;DHT22;27211;51.220;5.308;2023-03-31T14:10:49;13.10;99.90
41471;DHT22;27211;51.220;5.308;2023-03-31T14:13:34;13.10;99.90
41471;DHT22;27211;51.220;5.308;2023-03-31T14:16:19;13.00;99.90
41471;DHT22;27211;51.220;5.308;2023-03-31T14:21:47;12.90;99.90
41471;DHT22;27211;51.220;5.308;2023-03-31T14:24:51;12.80;99.90
41471;DHT22;27211;51.220;5.308;2023-03-31T14:32:45;12.40;99.90
41471;DHT22;27211;51.220;5.308;2023-03-31T14:35:30;12.30;99.90
41471;DHT22;27211;51.220;5.308;2023-03-31T14:38:15;12.30;99.90
41471;DHT22;27211;51.220;5.308;2023-03-31T14:40:58;12.30;99.90
41471;DHT22;27211;51.220;5.308;2023-03-31T14:43:54;12.30;99.90
41471;DHT22;27211;51.220;5.308;2023-03-31T14:46:40;12.30;99.90
41471;DHT22;27211;51.220;5.308;2023-03-31T14:49:27;12.40;99.90
41471;DHT22;27211;51.220;5.308;2023-03-31T14:52:18;12.30;99.90
41471;DHT22;27211;51.220;5.308;2023-03-31T14:55:03;12.20;99.90
41471;DHT22;27211;51.220;5.308;2023-03-31T14:57:49;12.20;99.90
41471;DHT22;27211;51.220;5.308;2023-03-31T15:00:34;11.90;99.90
41471;DHT22;27211;51.220;5.308;2023-03-31T15:03:20;11.90;99.90
41471;DHT22;27211;51.220;5.308;2023-03-31T15:06:08;12.00;99.90
41471;DHT22;27211;51.220;5.308;2023-03-31T15:08:57;12.00;99.90
41471;DHT22;27211;51.220;5.308;2023-03-31T15:11:42;12.10;99.90
41471;DHT22;27211;51.220;5.308;2023-03-31T15:14:32;12.20;99.90
41471;DHT22;27211;51.220;5.308;2023-03-31T15:17:38;12.30;99.90
41471;DHT22;27211;51.220;5.308;2023-03-31T15:21:04;12.40;99.90
41471;DHT22;27211;51.220;5.308;2023-03-31T15:22:58;12.20;99.90
41471;DHT22;27211;51.220;5.308;2023-03-31T15:25:50;12.20;99.90
41471;DHT22;27211;51.220;5.308;2023-03-31T15:28:39;12.20;99.90
41471;DHT22;27211;51.220;5.308;2023-03-31T15:31:23;12.00;99.90
41471;DHT22;27211;51.220;5.308;2023-03-31T15:34:23;12.00;99.90
41471;DHT22;27211;51.220;5.308;2023-03-31T15:37:07;11.80;99.90
41471;DHT22;27211;51.220;5.308;2023-03-31T15:39:54;11.80;99.90
41471;DHT22;27211;51.220;5.308;2023-03-31T15:42:38;11.80;99.90
41471;DHT22;27211;51.220;5.308;2023-03-31T15:47:55;12.00;99.90
41471;DHT22;27211;51.220;5.308;2023-03-31T15:50:41;12.00;99.90
41471;DHT22;27211;51.220;5.308;2023-03-31T15:53:37;12.00;99.90
41471;DHT22;27211;51.220;5.308;2023-03-31T15:56:28;12.00;99.90
41471;DHT22;27211;51.220;5.308;2023-03-31T16:01:43;12.10;99.90
41471;DHT22;27211;51.220;5.308;2023-03-31T16:04:30;12.30;99.90
41471;DHT22;27211;51.220;5.308;2023-03-31T16:07:18;12.20;99.90
41471;DHT22;27211;51.220;5.308;2023-03-31T16:10:02;12.30;99.90
41471;DHT22;27211;51.220;5.308;2023-03-31T16:12:57;12.20;99.90
41471;DHT22;27211;51.220;5.308;2023-03-31T16:15:42;12.30;99.90
41471;DHT22;27211;51.220;5.308;2023-03-31T16:20:53;12.20;99.90
41471;DHT22;27211;51.220;5.308;2023-03-31T16:23:40;12.20;99.90
41471;DHT22;27211;51.220;5.308;2023-03-31T16:26:26;12.40;99.90
41471;DHT22;27211;51.220;5.308;2023-03-31T16:29:18;12.40;99.90
41471;DHT22;27211;51.220;5.308;2023-03-31T16:32:11;12.40;99.90
41471;DHT22;27211;51.220;5.308;2023-03-31T16:34:59;12.50;99.90
41471;DHT22;27211;51.220;5.308;2023-03-31T16:37:44;12.50;99.90
41471;DHT22;27211;51.220;5.308;2023-03-31T16:40:33;12.50;99.90
41471;DHT22;27211;51.220;5.308;2023-03-31T16:43:16;12.40;99.90
41471;DHT22;27211;51.220;5.308;2023-03-31T16:46:01;12.20;99.90
41471;DHT22;27211;51.220;5.308;2023-03-31T16:48:47;12.00;99.90
41471;DHT22;27211;51.220;5.308;2023-03-31T16:51:32;11.70;99.90
41471;DHT22;27211;51.220;5.308;2023-03-31T16:54:17;11.60;99.90
41471;DHT22;27211;51.220;5.308;2023-03-31T16:57:03;11.50;99.90
41471;DHT22;27211;51.220;5.308;2023-03-31T16:59:49;11.40;99.90
41471;DHT22;27211;51.220;5.308;2023-03-31T17:02:34;11.50;99.90
41471;DHT22;27211;51.220;5.308;2023-03-31T17:05:21;11.30;99.90
41471;DHT22;27211;51.220;5.308;2023-03-31T17:08:07;11.40;99.90
41471;DHT22;27211;51.220;5.308;2023-03-31T17:10:59;11.40;99.90
41471;DHT22;27211;51.220;5.308;2023-03-31T17:13:42;11.30;99.90
41471;DHT22;27211;51.220;5.308;2023-03-31T17:16:28;11.30;99.90
41471;DHT22;27211;51.220;5.308;2023-03-31T17:19:14;11.40;99.90
41471;DHT22;27211;51.220;5.308;2023-03-31T17:21:59;11.30;99.90
41471;DHT22;27211;51.220;5.308;2023-03-31T17:24:45;11.30;99.90
41471;DHT22;27211;51.220;5.308;2023-03-31T17:27:32;11.40;99.90
41471;DHT22;27211;51.220;5.308;2023-03-31T17:30:19;11.30;99.90
41471;DHT22;27211;51.220;5.308;2023-03-31T17:33:09;11.20;99.90
41471;DHT22;27211;51.220;5.308;2023-03-31T17:35:54;11.30;99.90
41471;DHT22;27211;51.220;5.308;2023-03-31T17:38:40;11.30;99.90
41471;DHT22;27211;51.220;5.308;2023-03-31T17:41:25;11.20;99.90
41471;DHT22;27211;51.220;5.308;2023-03-31T17:44:10;11.20;99.90
41471;DHT22;27211;51.220;5.308;2023-03-31T17:46:56;11.20;99.90
41471;DHT22;27211;51.220;5.308;2023-03-31T17:49:45;11.00;99.90
41471;DHT22;27211;51.220;5.308;2023-03-31T17:52:27;11.00;99.90
41471;DHT22;27211;51.220;5.308;2023-03-31T17:55:12;11.00;99.90
41471;DHT22;27211;51.220;5.308;2023-03-31T17:57:59;10.90;99.90
41471;DHT22;27211;51.220;5.308;2023-03-31T18:00:46;10.90;99.90
41471;DHT22;27211;51.220;5.308;2023-03-31T18:03:32;10.90;99.90
41471;DHT22;27211;51.220;5.308;2023-03-31T18:06:18;10.90;99.90
41471;DHT22;27211;51.220;5.308;2023-03-31T18:09:03;11.00;99.90
41471;DHT22;27211;51.220;5.308;2023-03-31T18:11:49;11.00;99.90
41471;DHT22;27211;51.220;5.308;2023-03-31T18:14:34;11.10;99.90
41471;DHT22;27211;51.220;5.308;2023-03-31T18:17:20;11.00;99.90
41471;DHT22;27211;51.220;5.308;2023-03-31T18:20:07;10.90;99.90
41471;DHT22;27211;51.220;5.308;2023-03-31T18:22:53;10.80;99.90
41471;DHT22;27211;51.220;5.308;2023-03-31T18:25:41;10.80;99.90
41471;DHT22;27211;51.220;5.308;2023-03-31T18:28:24;10.80;99.90
41471;DHT22;27211;51.220;5.308;2023-03-31T18:31:11;10.80;99.90
41471;DHT22;27211;51.220;5.308;2023-03-31T18:33:56;10.70;99.90
41471;DHT22;27211;51.220;5.308;2023-03-31T18:36:41;10.80;99.90
41471;DHT22;27211;51.220;5.308;2023-03-31T18:39:29;10.70;99.90
41471;DHT22;27211;51.220;5.308;2023-03-31T18:42:15;10.60;99.90
41471;DHT22;27211;51.220;5.308;2023-03-31T18:45:01;10.70;99.90
41471;DHT22;27211;51.220;5.308;2023-03-31T18:47:46;10.60;99.90
41471;DHT22;27211;51.220;5.308;2023-03-31T18:50:32;10.60;99.90
41471;DHT22;27211;51.220;5.308;2023-03-31T18:53:18;10.70;99.90
41471;DHT22;27211;51.220;5.308;2023-03-31T18:56:03;10.60;99.90
41471;DHT22;27211;51.220;5.308;2023-03-31T18:58:49;10.60;99.90
41471;DHT22;27211;51.220;5.308;2023-03-31T19:01:34;10.60;99.90
41471;DHT22;27211;51.220;5.308;2023-03-31T19:04:20;10.70;99.90
41471;DHT22;27211;51.220;5.308;2023-03-31T19:07:05;10.70;99.90
41471;DHT22;27211;51.220;5.308;2023-03-31T19:09:51;10.60;99.90
41471;DHT22;27211;51.220;5.308;2023-03-31T19:12:36;10.60;99.90
41471;DHT22;27211;51.220;5.308;2023-03-31T19:15:22;10.60;99.90
41471;DHT22;27211;51.220;5.308;2023-03-31T19:18:10;10.70;99.90
41471;DHT22;27211;51.220;5.308;2023-03-31T19:20:54;10.60;99.90
41471;DHT22;27211;51.220;5.308;2023-03-31T19:23:39;10.50;99.90
41471;DHT22;27211;51.220;5.308;2023-03-31T19:26:25;10.40;99.90
41471;DHT22;27211;51.220;5.308;2023-03-31T19:29:10;10.40;99.90
41471;DHT22;27211;51.220;5.308;2023-03-31T19:31:56;10.50;99.90
41471;DHT22;27211;51.220;5.308;2023-03-31T19:34:42;10.50;99.90
41471;DHT22;27211;51.220;5.308;2023-03-31T19:37:28;10.50;99.90
41471;DHT22;27211;51.220;5.308;2023-03-31T19:40:15;10.50;99.90
41471;DHT22;27211;51.220;5.308;2023-03-31T19:43:00;10.50;99.90
41471;DHT22;27211;51.220;5.308;2023-03-31T19:45:47;10.50;99.90
41471;DHT22;27211;51.220;5.308;2023-03-31T19:48:32;10.50;99.90
41471;DHT22;27211;51.220;5.308;2023-03-31T19:51:18;10.30;99.90
41471;DHT22;27211;51.220;5.308;2023-03-31T19:54:03;10.30;99.90
41471;DHT22;27211;51.220;5.308;2023-03-31T19:56:49;10.30;99.90
41471;DHT22;27211;51.220;5.308;2023-03-31T19:59:35;10.30;99.90
41471;DHT22;27211;51.220;5.308;2023-03-31T20:02:20;10.50;99.90
41471;DHT22;27211;51.220;5.308;2023-03-31T20:05:06;10.50;99.90